sensor_id;sensor_type;location;lat;lon;timestamp;P1;durP1;ratioP1;P2;durP2;ratioP2
18834;SDS011;9546;59.262;18.036;2022-08-20T00:01:07;18.48;;;13.27;;
18834;SDS011;9546;59.262;18.036;2022-08-20T00:03:35;15.88;;;12.35;;
18834;SDS011;9546;59.262;18.036;2022-08-20T00:06:03;13.48;;;12.10;;
18834;SDS011;9546;59.262;18.036;2022-08-20T00:08:30;20.13;;;12.18;;
18834;SDS011;9546;59.262;18.036;2022-08-20T00:10:57;15.05;;;13.15;;
18834;SDS011;9546;59.262;18.036;2022-08-20T00:13:25;16.48;;;13.10;;
18834;SDS011;9546;59.262;18.036;2022-08-20T00:15:52;13.77;;;12.32;;
18834;SDS011;9546;59.262;18.036;2022-08-20T00:18:20;14.15;;;12.23;;
18834;SDS011;9546;59.262;18.036;2022-08-20T00:20:49;17.25;;;13.45;;
18834;SDS011;9546;59.262;18.036;2022-08-20T00:23:16;14.65;;;11.90;;
18834;SDS011;9546;59.262;18.036;2022-08-20T00:25:43;16.23;;;12.48;;
18834;SDS011;9546;59.262;18.036;2022-08-20T00:28:09;16.58;;;12.98;;
18834;SDS011;9546;59.262;18.036;2022-08-20T00:30:37;22.52;;;12.35;;
18834;SDS011;9546;59.262;18.036;2022-08-20T00:33:05;22.85;;;13.35;;
18834;SDS011;9546;59.262;18.036;2022-08-20T00:35:34;15.25;;;11.52;;
18834;SDS011;9546;59.262;18.036;2022-08-20T00:38:01;18.17;;;12.20;;
18834;SDS011;9546;59.262;18.036;2022-08-20T00:40:29;19.17;;;11.77;;
18834;SDS011;9546;59.262;18.036;2022-08-20T00:42:57;16.73;;;11.05;;
18834;SDS011;9546;59.262;18.036;2022-08-20T00:45:25;13.38;;;11.40;;
18834;SDS011;9546;59.262;18.036;2022-08-20T00:47:52;12.65;;;9.98;;
18834;SDS011;9546;59.262;18.036;2022-08-20T00:50:26;17.77;;;11.23;;
18834;SDS011;9546;59.262;18.036;2022-08-20T01:12:38;14.98;;;9.63;;
18834;SDS011;9546;59.262;18.036;2022-08-20T01:15:09;13.98;;;9.50;;
18834;SDS011;9546;59.262;18.036;2022-08-20T01:17:40;14.00;;;9.20;;
18834;SDS011;9546;59.262;18.036;2022-08-20T01:20:11;15.70;;;10.10;;
18834;SDS011;9546;59.262;18.036;2022-08-20T01:22:42;11.93;;;8.95;;
18834;SDS011;9546;59.262;18.036;2022-08-20T01:25:40;17.70;;;8.75;;
18834;SDS011;9546;59.262;18.036;2022-08-20T01:28:10;12.93;;;8.52;;
18834;SDS011;9546;59.262;18.036;2022-08-20T01:30:40;10.98;;;8.35;;
18834;SDS011;9546;59.262;18.036;2022-08-20T01:33:08;10.38;;;8.30;;
18834;SDS011;9546;59.262;18.036;2022-08-20T01:35:35;15.13;;;9.30;;
18834;SDS011;9546;59.262;18.036;2022-08-20T01:38:03;13.50;;;8.95;;
18834;SDS011;9546;59.262;18.036;2022-08-20T01:40:35;14.48;;;8.65;;
18834;SDS011;9546;59.262;18.036;2022-08-20T01:43:23;17.73;;;8.35;;
18834;SDS011;9546;59.262;18.036;2022-08-20T01:45:50;13.13;;;8.57;;
18834;SDS011;9546;59.262;18.036;2022-08-20T01:48:18;12.15;;;7.47;;
18834;SDS011;9546;59.262;18.036;2022-08-20T01:50:48;16.95;;;7.32;;
18834;SDS011;9546;59.262;18.036;2022-08-20T01:53:23;13.50;;;8.00;;
18834;SDS011;9546;59.262;18.036;2022-08-20T01:55:55;8.93;;;6.80;;
18834;SDS011;9546;59.262;18.036;2022-08-20T01:58:22;19.85;;;7.68;;
18834;SDS011;9546;59.262;18.036;2022-08-20T02:00:48;8.85;;;6.68;;
18834;SDS011;9546;59.262;18.036;2022-08-20T02:03:15;11.77;;;7.00;;
18834;SDS011;9546;59.262;18.036;2022-08-20T02:05:42;13.77;;;7.00;;
18834;SDS011;9546;59.262;18.036;2022-08-20T02:08:09;7.55;;;6.38;;
18834;SDS011;9546;59.262;18.036;2022-08-20T02:10:36;15.60;;;6.50;;
18834;SDS011;9546;59.262;18.036;2022-08-20T02:13:04;12.68;;;7.07;;
18834;SDS011;9546;59.262;18.036;2022-08-20T02:15:34;13.63;;;6.80;;
18834;SDS011;9546;59.262;18.036;2022-08-20T02:18:02;16.52;;;7.60;;
18834;SDS011;9546;59.262;18.036;2022-08-20T02:20:30;13.13;;;6.65;;
18834;SDS011;9546;59.262;18.036;2022-08-20T02:22:58;17.30;;;7.63;;
18834;SDS011;9546;59.262;18.036;2022-08-20T02:25:27;9.52;;;6.00;;
18834;SDS011;9546;59.262;18.036;2022-08-20T02:27:57;14.90;;;6.82;;
18834;SDS011;9546;59.262;18.036;2022-08-20T02:30:29;17.95;;;7.28;;
18834;SDS011;9546;59.262;18.036;2022-08-20T02:32:58;13.07;;;6.88;;
18834;SDS011;9546;59.262;18.036;2022-08-20T02:35:26;13.93;;;7.05;;
18834;SDS011;9546;59.262;18.036;2022-08-20T02:37:53;15.35;;;7.10;;
18834;SDS011;9546;59.262;18.036;2022-08-20T02:40:21;13.55;;;6.75;;
18834;SDS011;9546;59.262;18.036;2022-08-20T02:42:51;15.25;;;7.35;;
18834;SDS011;9546;59.262;18.036;2022-08-20T02:45:18;17.75;;;7.45;;
18834;SDS011;9546;59.262;18.036;2022-08-20T02:47:48;12.90;;;7.13;;
18834;SDS011;9546;59.262;18.036;2022-08-20T02:50:17;14.55;;;7.25;;
18834;SDS011;9546;59.262;18.036;2022-08-20T03:12:24;14.35;;;6.72;;
18834;SDS011;9546;59.262;18.036;2022-08-20T03:14:51;16.77;;;7.80;;
18834;SDS011;9546;59.262;18.036;2022-08-20T03:17:18;15.02;;;7.25;;
18834;SDS011;9546;59.262;18.036;2022-08-20T03:19:45;12.40;;;7.38;;
18834;SDS011;9546;59.262;18.036;2022-08-20T03:22:12;12.32;;;7.60;;
18834;SDS011;9546;59.262;18.036;2022-08-20T03:24:38;19.88;;;8.05;;
18834;SDS011;9546;59.262;18.036;2022-08-20T03:27:05;17.33;;;7.88;;
18834;SDS011;9546;59.262;18.036;2022-08-20T03:29:33;14.52;;;7.57;;
18834;SDS011;9546;59.262;18.036;2022-08-20T03:32:00;19.08;;;8.13;;
18834;SDS011;9546;59.262;18.036;2022-08-20T03:34:27;14.52;;;7.88;;
18834;SDS011;9546;59.262;18.036;2022-08-20T03:36:54;14.32;;;7.85;;
18834;SDS011;9546;59.262;18.036;2022-08-20T03:39:20;13.80;;;7.65;;
18834;SDS011;9546;59.262;18.036;2022-08-20T03:41:47;13.52;;;8.05;;
18834;SDS011;9546;59.262;18.036;2022-08-20T03:44:14;10.63;;;7.80;;
18834;SDS011;9546;59.262;18.036;2022-08-20T03:46:42;22.17;;;7.93;;
18834;SDS011;9546;59.262;18.036;2022-08-20T03:49:09;14.55;;;8.15;;
18834;SDS011;9546;59.262;18.036;2022-08-20T03:51:36;16.92;;;8.25;;
18834;SDS011;9546;59.262;18.036;2022-08-20T03:54:02;19.17;;;8.55;;
18834;SDS011;9546;59.262;18.036;2022-08-20T03:56:29;21.55;;;8.68;;
18834;SDS011;9546;59.262;18.036;2022-08-20T03:58:56;12.90;;;8.38;;
18834;SDS011;9546;59.262;18.036;2022-08-20T04:01:23;14.23;;;8.75;;
18834;SDS011;9546;59.262;18.036;2022-08-20T04:03:51;17.67;;;9.05;;
18834;SDS011;9546;59.262;18.036;2022-08-20T04:06:18;16.45;;;9.57;;
18834;SDS011;9546;59.262;18.036;2022-08-20T04:08:45;14.65;;;8.13;;
18834;SDS011;9546;59.262;18.036;2022-08-20T04:11:12;17.23;;;10.00;;
18834;SDS011;9546;59.262;18.036;2022-08-20T04:13:38;17.25;;;9.85;;
18834;SDS011;9546;59.262;18.036;2022-08-20T04:16:05;15.77;;;10.15;;
18834;SDS011;9546;59.262;18.036;2022-08-20T04:18:34;20.00;;;10.35;;
18834;SDS011;9546;59.262;18.036;2022-08-20T04:21:03;24.15;;;10.88;;
18834;SDS011;9546;59.262;18.036;2022-08-20T04:23:30;17.08;;;9.43;;
18834;SDS011;9546;59.262;18.036;2022-08-20T04:25:57;19.85;;;10.20;;
18834;SDS011;9546;59.262;18.036;2022-08-20T04:28:25;15.07;;;10.32;;
18834;SDS011;9546;59.262;18.036;2022-08-20T04:30:54;15.50;;;9.85;;
18834;SDS011;9546;59.262;18.036;2022-08-20T04:33:23;13.77;;;10.05;;
18834;SDS011;9546;59.262;18.036;2022-08-20T04:35:51;13.23;;;9.75;;
18834;SDS011;9546;59.262;18.036;2022-08-20T04:38:21;16.52;;;9.20;;
18834;SDS011;9546;59.262;18.036;2022-08-20T04:40:48;17.00;;;10.43;;
18834;SDS011;9546;59.262;18.036;2022-08-20T04:43:23;15.20;;;9.40;;
18834;SDS011;9546;59.262;18.036;2022-08-20T04:45:53;18.45;;;9.80;;
18834;SDS011;9546;59.262;18.036;2022-08-20T04:48:22;14.52;;;9.77;;
18834;SDS011;9546;59.262;18.036;2022-08-20T04:50:50;14.85;;;9.32;;
18834;SDS011;9546;59.262;18.036;2022-08-20T05:11:47;18.38;;;10.70;;
18834;SDS011;9546;59.262;18.036;2022-08-20T05:14:14;19.48;;;11.27;;
18834;SDS011;9546;59.262;18.036;2022-08-20T05:16:41;18.65;;;11.70;;
18834;SDS011;9546;59.262;18.036;2022-08-20T05:19:10;21.52;;;12.45;;
18834;SDS011;9546;59.262;18.036;2022-08-20T05:21:38;17.02;;;12.98;;
18834;SDS011;9546;59.262;18.036;2022-08-20T05:24:05;16.88;;;12.43;;
18834;SDS011;9546;59.262;18.036;2022-08-20T05:26:32;27.95;;;14.60;;
18834;SDS011;9546;59.262;18.036;2022-08-20T05:29:01;24.20;;;13.23;;
18834;SDS011;9546;59.262;18.036;2022-08-20T05:31:29;24.20;;;14.40;;
18834;SDS011;9546;59.262;18.036;2022-08-20T05:33:57;20.38;;;13.73;;
18834;SDS011;9546;59.262;18.036;2022-08-20T05:36:23;19.95;;;14.18;;
18834;SDS011;9546;59.262;18.036;2022-08-20T05:38:51;20.65;;;13.57;;
18834;SDS011;9546;59.262;18.036;2022-08-20T05:41:18;19.17;;;12.73;;
18834;SDS011;9546;59.262;18.036;2022-08-20T05:43:45;19.85;;;13.05;;
18834;SDS011;9546;59.262;18.036;2022-08-20T05:46:13;23.83;;;14.25;;
18834;SDS011;9546;59.262;18.036;2022-08-20T05:48:40;21.52;;;13.85;;
18834;SDS011;9546;59.262;18.036;2022-08-20T05:51:07;22.67;;;14.38;;
18834;SDS011;9546;59.262;18.036;2022-08-20T05:53:34;21.05;;;14.82;;
18834;SDS011;9546;59.262;18.036;2022-08-20T05:56:02;23.45;;;15.18;;
18834;SDS011;9546;59.262;18.036;2022-08-20T05:58:29;21.00;;;13.90;;
18834;SDS011;9546;59.262;18.036;2022-08-20T06:00:56;18.15;;;14.48;;
18834;SDS011;9546;59.262;18.036;2022-08-20T06:03:25;21.42;;;15.68;;
18834;SDS011;9546;59.262;18.036;2022-08-20T06:06:10;17.75;;;13.95;;
18834;SDS011;9546;59.262;18.036;2022-08-20T06:08:37;20.88;;;14.35;;
18834;SDS011;9546;59.262;18.036;2022-08-20T06:11:03;22.83;;;14.80;;
18834;SDS011;9546;59.262;18.036;2022-08-20T06:13:31;20.00;;;14.27;;
18834;SDS011;9546;59.262;18.036;2022-08-20T06:15:59;19.08;;;14.10;;
18834;SDS011;9546;59.262;18.036;2022-08-20T06:18:27;20.38;;;13.75;;
18834;SDS011;9546;59.262;18.036;2022-08-20T06:20:54;22.95;;;13.98;;
18834;SDS011;9546;59.262;18.036;2022-08-20T06:23:21;18.30;;;13.50;;
18834;SDS011;9546;59.262;18.036;2022-08-20T06:25:49;22.55;;;14.35;;
18834;SDS011;9546;59.262;18.036;2022-08-20T06:28:20;21.30;;;14.60;;
18834;SDS011;9546;59.262;18.036;2022-08-20T06:30:47;20.67;;;14.30;;
18834;SDS011;9546;59.262;18.036;2022-08-20T06:33:14;22.35;;;13.15;;
18834;SDS011;9546;59.262;18.036;2022-08-20T06:35:42;20.52;;;12.52;;
18834;SDS011;9546;59.262;18.036;2022-08-20T06:38:09;21.77;;;13.25;;
18834;SDS011;9546;59.262;18.036;2022-08-20T06:40:37;21.65;;;13.15;;
18834;SDS011;9546;59.262;18.036;2022-08-20T06:43:04;19.42;;;12.77;;
18834;SDS011;9546;59.262;18.036;2022-08-20T06:45:34;23.35;;;12.35;;
18834;SDS011;9546;59.262;18.036;2022-08-20T06:48:04;17.73;;;10.65;;
18834;SDS011;9546;59.262;18.036;2022-08-20T06:50:33;19.50;;;10.93;;
18834;SDS011;9546;59.262;18.036;2022-08-20T07:11:58;22.33;;;10.63;;
18834;SDS011;9546;59.262;18.036;2022-08-20T07:14:25;21.98;;;12.07;;
18834;SDS011;9546;59.262;18.036;2022-08-20T07:16:51;17.38;;;11.18;;
18834;SDS011;9546;59.262;18.036;2022-08-20T07:19:18;20.38;;;11.05;;
18834;SDS011;9546;59.262;18.036;2022-08-20T07:21:44;20.45;;;11.75;;
18834;SDS011;9546;59.262;18.036;2022-08-20T07:24:11;18.45;;;11.30;;
18834;SDS011;9546;59.262;18.036;2022-08-20T07:26:38;18.25;;;11.38;;
18834;SDS011;9546;59.262;18.036;2022-08-20T07:29:06;20.77;;;10.90;;
18834;SDS011;9546;59.262;18.036;2022-08-20T07:31:33;20.80;;;11.40;;
18834;SDS011;9546;59.262;18.036;2022-08-20T07:34:17;16.33;;;10.65;;
18834;SDS011;9546;59.262;18.036;2022-08-20T07:36:43;15.95;;;10.60;;
18834;SDS011;9546;59.262;18.036;2022-08-20T07:39:13;17.42;;;10.45;;
18834;SDS011;9546;59.262;18.036;2022-08-20T07:41:39;14.90;;;10.68;;
18834;SDS011;9546;59.262;18.036;2022-08-20T07:44:07;13.05;;;10.30;;
18834;SDS011;9546;59.262;18.036;2022-08-20T07:46:34;17.95;;;11.00;;
18834;SDS011;9546;59.262;18.036;2022-08-20T07:49:00;15.82;;;10.60;;
18834;SDS011;9546;59.262;18.036;2022-08-20T07:51:33;18.75;;;11.02;;
18834;SDS011;9546;59.262;18.036;2022-08-20T07:54:01;24.42;;;11.05;;
18834;SDS011;9546;59.262;18.036;2022-08-20T07:56:28;16.05;;;9.82;;
18834;SDS011;9546;59.262;18.036;2022-08-20T07:58:55;16.75;;;9.85;;
18834;SDS011;9546;59.262;18.036;2022-08-20T08:01:25;15.80;;;9.52;;
18834;SDS011;9546;59.262;18.036;2022-08-20T08:03:53;11.43;;;8.93;;
18834;SDS011;9546;59.262;18.036;2022-08-20T08:06:22;16.65;;;9.80;;
18834;SDS011;9546;59.262;18.036;2022-08-20T08:08:48;16.30;;;9.85;;
18834;SDS011;9546;59.262;18.036;2022-08-20T08:11:15;14.77;;;9.82;;
18834;SDS011;9546;59.262;18.036;2022-08-20T08:13:43;15.40;;;9.55;;
18834;SDS011;9546;59.262;18.036;2022-08-20T08:16:10;17.65;;;9.93;;
18834;SDS011;9546;59.262;18.036;2022-08-20T08:18:39;16.55;;;10.23;;
18834;SDS011;9546;59.262;18.036;2022-08-20T08:21:06;17.02;;;9.63;;
18834;SDS011;9546;59.262;18.036;2022-08-20T08:23:33;18.92;;;9.60;;
18834;SDS011;9546;59.262;18.036;2022-08-20T08:26:00;19.08;;;9.80;;
18834;SDS011;9546;59.262;18.036;2022-08-20T08:28:26;21.13;;;10.00;;
18834;SDS011;9546;59.262;18.036;2022-08-20T08:30:53;20.58;;;9.80;;
18834;SDS011;9546;59.262;18.036;2022-08-20T08:33:21;22.60;;;10.07;;
18834;SDS011;9546;59.262;18.036;2022-08-20T08:35:57;14.88;;;10.20;;
18834;SDS011;9546;59.262;18.036;2022-08-20T08:38:24;21.38;;;10.88;;
18834;SDS011;9546;59.262;18.036;2022-08-20T08:40:51;21.17;;;10.73;;
18834;SDS011;9546;59.262;18.036;2022-08-20T08:43:19;24.27;;;11.23;;
18834;SDS011;9546;59.262;18.036;2022-08-20T08:45:46;14.63;;;10.13;;
18834;SDS011;9546;59.262;18.036;2022-08-20T08:48:16;24.13;;;11.48;;
18834;SDS011;9546;59.262;18.036;2022-08-20T08:50:46;18.08;;;10.63;;
18834;SDS011;9546;59.262;18.036;2022-08-20T09:12:16;25.83;;;13.68;;
18834;SDS011;9546;59.262;18.036;2022-08-20T09:14:45;26.42;;;12.52;;
18834;SDS011;9546;59.262;18.036;2022-08-20T09:17:12;27.42;;;13.80;;
18834;SDS011;9546;59.262;18.036;2022-08-20T09:19:39;27.25;;;12.95;;
18834;SDS011;9546;59.262;18.036;2022-08-20T09:22:07;25.48;;;12.15;;
18834;SDS011;9546;59.262;18.036;2022-08-20T09:24:34;19.83;;;12.65;;
18834;SDS011;9546;59.262;18.036;2022-08-20T09:27:01;22.55;;;13.40;;
18834;SDS011;9546;59.262;18.036;2022-08-20T09:29:29;23.40;;;13.20;;
18834;SDS011;9546;59.262;18.036;2022-08-20T09:32:02;25.52;;;12.90;;
18834;SDS011;9546;59.262;18.036;2022-08-20T09:34:33;25.55;;;12.52;;
18834;SDS011;9546;59.262;18.036;2022-08-20T09:37:00;26.33;;;13.25;;
18834;SDS011;9546;59.262;18.036;2022-08-20T09:39:27;27.17;;;13.35;;
18834;SDS011;9546;59.262;18.036;2022-08-20T09:41:54;21.35;;;12.43;;
18834;SDS011;9546;59.262;18.036;2022-08-20T09:44:21;19.05;;;12.60;;
18834;SDS011;9546;59.262;18.036;2022-08-20T09:46:49;21.50;;;12.07;;
18834;SDS011;9546;59.262;18.036;2022-08-20T09:49:16;20.77;;;12.50;;
18834;SDS011;9546;59.262;18.036;2022-08-20T09:51:43;21.35;;;11.77;;
18834;SDS011;9546;59.262;18.036;2022-08-20T09:54:10;23.95;;;12.52;;
18834;SDS011;9546;59.262;18.036;2022-08-20T09:56:37;22.30;;;12.13;;
18834;SDS011;9546;59.262;18.036;2022-08-20T09:59:04;19.85;;;11.93;;
18834;SDS011;9546;59.262;18.036;2022-08-20T10:01:30;24.00;;;11.48;;
18834;SDS011;9546;59.262;18.036;2022-08-20T10:04:01;22.95;;;12.07;;
18834;SDS011;9546;59.262;18.036;2022-08-20T10:06:28;23.60;;;12.00;;
18834;SDS011;9546;59.262;18.036;2022-08-20T10:08:55;19.98;;;12.25;;
18834;SDS011;9546;59.262;18.036;2022-08-20T10:11:23;19.83;;;12.18;;
18834;SDS011;9546;59.262;18.036;2022-08-20T10:13:50;19.33;;;12.60;;
18834;SDS011;9546;59.262;18.036;2022-08-20T10:16:17;21.73;;;11.95;;
18834;SDS011;9546;59.262;18.036;2022-08-20T10:18:43;26.42;;;12.60;;
18834;SDS011;9546;59.262;18.036;2022-08-20T10:21:14;18.33;;;12.65;;
18834;SDS011;9546;59.262;18.036;2022-08-20T10:23:41;20.27;;;12.85;;
18834;SDS011;9546;59.262;18.036;2022-08-20T10:26:09;28.17;;;12.88;;
18834;SDS011;9546;59.262;18.036;2022-08-20T10:28:39;24.38;;;12.85;;
18834;SDS011;9546;59.262;18.036;2022-08-20T10:31:06;25.42;;;13.07;;
18834;SDS011;9546;59.262;18.036;2022-08-20T10:33:33;23.63;;;13.40;;
18834;SDS011;9546;59.262;18.036;2022-08-20T10:36:04;22.48;;;13.27;;
18834;SDS011;9546;59.262;18.036;2022-08-20T10:38:35;29.42;;;14.00;;
18834;SDS011;9546;59.262;18.036;2022-08-20T10:41:02;27.85;;;14.63;;
18834;SDS011;9546;59.262;18.036;2022-08-20T10:43:30;23.40;;;15.15;;
18834;SDS011;9546;59.262;18.036;2022-08-20T10:45:57;23.35;;;14.05;;
18834;SDS011;9546;59.262;18.036;2022-08-20T10:48:24;24.27;;;14.65;;
18834;SDS011;9546;59.262;18.036;2022-08-20T10:50:51;30.80;;;14.32;;
18834;SDS011;9546;59.262;18.036;2022-08-20T11:12:28;23.42;;;16.15;;
18834;SDS011;9546;59.262;18.036;2022-08-20T11:14:55;30.75;;;17.35;;
18834;SDS011;9546;59.262;18.036;2022-08-20T11:17:23;26.45;;;16.52;;
18834;SDS011;9546;59.262;18.036;2022-08-20T11:19:51;32.65;;;18.40;;
18834;SDS011;9546;59.262;18.036;2022-08-20T11:22:18;28.02;;;17.08;;
18834;SDS011;9546;59.262;18.036;2022-08-20T11:24:45;31.90;;;17.10;;
18834;SDS011;9546;59.262;18.036;2022-08-20T11:27:13;25.42;;;16.70;;
18834;SDS011;9546;59.262;18.036;2022-08-20T11:29:52;28.65;;;15.90;;
18834;SDS011;9546;59.262;18.036;2022-08-20T11:32:19;40.03;;;20.88;;
18834;SDS011;9546;59.262;18.036;2022-08-20T11:34:46;37.92;;;19.45;;
18834;SDS011;9546;59.262;18.036;2022-08-20T11:37:13;34.97;;;18.02;;
18834;SDS011;9546;59.262;18.036;2022-08-20T11:39:42;28.83;;;17.27;;
18834;SDS011;9546;59.262;18.036;2022-08-20T11:42:09;32.15;;;18.00;;
18834;SDS011;9546;59.262;18.036;2022-08-20T11:44:36;32.88;;;17.88;;
18834;SDS011;9546;59.262;18.036;2022-08-20T11:47:05;32.55;;;17.83;;
18834;SDS011;9546;59.262;18.036;2022-08-20T11:49:34;30.27;;;17.27;;
18834;SDS011;9546;59.262;18.036;2022-08-20T11:52:02;37.80;;;17.83;;
18834;SDS011;9546;59.262;18.036;2022-08-20T11:54:30;33.60;;;17.70;;
18834;SDS011;9546;59.262;18.036;2022-08-20T11:56:58;34.47;;;18.55;;
18834;SDS011;9546;59.262;18.036;2022-08-20T11:59:24;39.03;;;19.17;;
18834;SDS011;9546;59.262;18.036;2022-08-20T12:01:52;39.47;;;20.17;;
18834;SDS011;9546;59.262;18.036;2022-08-20T12:04:21;33.95;;;19.60;;
18834;SDS011;9546;59.262;18.036;2022-08-20T12:06:48;37.45;;;21.05;;
18834;SDS011;9546;59.262;18.036;2022-08-20T12:09:15;36.95;;;21.05;;
18834;SDS011;9546;59.262;18.036;2022-08-20T12:11:42;39.63;;;22.90;;
18834;SDS011;9546;59.262;18.036;2022-08-20T12:14:10;43.85;;;23.83;;
18834;SDS011;9546;59.262;18.036;2022-08-20T12:16:37;43.80;;;22.70;;
18834;SDS011;9546;59.262;18.036;2022-08-20T12:19:04;45.03;;;23.38;;
18834;SDS011;9546;59.262;18.036;2022-08-20T12:21:32;38.55;;;21.52;;
18834;SDS011;9546;59.262;18.036;2022-08-20T12:23:58;40.20;;;22.40;;
18834;SDS011;9546;59.262;18.036;2022-08-20T12:26:25;43.53;;;23.00;;
18834;SDS011;9546;59.262;18.036;2022-08-20T12:28:52;42.78;;;22.60;;
18834;SDS011;9546;59.262;18.036;2022-08-20T12:31:20;37.78;;;21.33;;
18834;SDS011;9546;59.262;18.036;2022-08-20T12:33:46;35.28;;;20.23;;
18834;SDS011;9546;59.262;18.036;2022-08-20T12:36:13;35.45;;;19.52;;
18834;SDS011;9546;59.262;18.036;2022-08-20T12:38:41;30.77;;;19.33;;
18834;SDS011;9546;59.262;18.036;2022-08-20T12:41:08;30.45;;;18.20;;
18834;SDS011;9546;59.262;18.036;2022-08-20T12:43:35;26.08;;;17.40;;
18834;SDS011;9546;59.262;18.036;2022-08-20T12:46:02;29.17;;;17.48;;
18834;SDS011;9546;59.262;18.036;2022-08-20T12:48:29;28.60;;;17.25;;
18834;SDS011;9546;59.262;18.036;2022-08-20T12:50:56;26.10;;;16.73;;
18834;SDS011;9546;59.262;18.036;2022-08-20T13:12:59;25.40;;;13.63;;
18834;SDS011;9546;59.262;18.036;2022-08-20T13:15:27;18.38;;;12.70;;
18834;SDS011;9546;59.262;18.036;2022-08-20T13:17:54;20.25;;;13.07;;
18834;SDS011;9546;59.262;18.036;2022-08-20T13:20:23;21.50;;;12.27;;
18834;SDS011;9546;59.262;18.036;2022-08-20T13:22:51;16.85;;;12.15;;
18834;SDS011;9546;59.262;18.036;2022-08-20T13:25:18;17.08;;;12.32;;
18834;SDS011;9546;59.262;18.036;2022-08-20T13:27:46;16.17;;;11.15;;
18834;SDS011;9546;59.262;18.036;2022-08-20T13:30:15;18.70;;;11.23;;
18834;SDS011;9546;59.262;18.036;2022-08-20T13:32:44;15.27;;;9.95;;
18834;SDS011;9546;59.262;18.036;2022-08-20T13:35:11;19.48;;;9.73;;
18834;SDS011;9546;59.262;18.036;2022-08-20T13:37:39;15.15;;;9.55;;
18834;SDS011;9546;59.262;18.036;2022-08-20T13:40:07;11.95;;;8.98;;
18834;SDS011;9546;59.262;18.036;2022-08-20T13:42:35;12.32;;;8.68;;
18834;SDS011;9546;59.262;18.036;2022-08-20T13:45:03;13.93;;;8.85;;
18834;SDS011;9546;59.262;18.036;2022-08-20T13:47:34;14.68;;;9.05;;
18834;SDS011;9546;59.262;18.036;2022-08-20T13:50:03;11.70;;;8.63;;
18834;SDS011;9546;59.262;18.036;2022-08-20T13:52:32;11.02;;;7.90;;
18834;SDS011;9546;59.262;18.036;2022-08-20T13:54:59;13.75;;;7.82;;
18834;SDS011;9546;59.262;18.036;2022-08-20T13:57:26;11.35;;;7.50;;
18834;SDS011;9546;59.262;18.036;2022-08-20T13:59:54;12.43;;;7.85;;
18834;SDS011;9546;59.262;18.036;2022-08-20T14:02:22;12.02;;;7.72;;
18834;SDS011;9546;59.262;18.036;2022-08-20T14:04:51;9.88;;;7.93;;
18834;SDS011;9546;59.262;18.036;2022-08-20T14:07:19;11.90;;;7.85;;
18834;SDS011;9546;59.262;18.036;2022-08-20T14:09:47;11.40;;;7.78;;
18834;SDS011;9546;59.262;18.036;2022-08-20T14:12:15;12.70;;;7.57;;
18834;SDS011;9546;59.262;18.036;2022-08-20T14:14:42;12.65;;;8.15;;
18834;SDS011;9546;59.262;18.036;2022-08-20T14:17:16;13.98;;;8.18;;
18834;SDS011;9546;59.262;18.036;2022-08-20T14:19:44;11.32;;;7.45;;
18834;SDS011;9546;59.262;18.036;2022-08-20T14:22:14;10.20;;;7.95;;
18834;SDS011;9546;59.262;18.036;2022-08-20T14:24:42;13.57;;;8.38;;
18834;SDS011;9546;59.262;18.036;2022-08-20T14:27:09;12.32;;;7.72;;
18834;SDS011;9546;59.262;18.036;2022-08-20T14:29:38;11.23;;;7.53;;
18834;SDS011;9546;59.262;18.036;2022-08-20T14:32:07;11.98;;;7.93;;
18834;SDS011;9546;59.262;18.036;2022-08-20T14:34:34;12.60;;;7.70;;
18834;SDS011;9546;59.262;18.036;2022-08-20T14:37:08;14.57;;;8.13;;
18834;SDS011;9546;59.262;18.036;2022-08-20T14:39:42;11.68;;;7.43;;
18834;SDS011;9546;59.262;18.036;2022-08-20T14:42:10;14.18;;;8.20;;
18834;SDS011;9546;59.262;18.036;2022-08-20T14:44:37;13.52;;;7.22;;
18834;SDS011;9546;59.262;18.036;2022-08-20T14:47:11;13.27;;;7.35;;
18834;SDS011;9546;59.262;18.036;2022-08-20T14:49:40;8.40;;;6.47;;
18834;SDS011;9546;59.262;18.036;2022-08-20T14:52:08;13.18;;;7.38;;
18834;SDS011;9546;59.262;18.036;2022-08-20T15:12:51;9.85;;;7.32;;
18834;SDS011;9546;59.262;18.036;2022-08-20T15:15:18;8.77;;;6.93;;
18834;SDS011;9546;59.262;18.036;2022-08-20T15:17:47;11.02;;;7.18;;
18834;SDS011;9546;59.262;18.036;2022-08-20T15:20:16;9.77;;;7.18;;
18834;SDS011;9546;59.262;18.036;2022-08-20T15:22:45;8.80;;;6.72;;
18834;SDS011;9546;59.262;18.036;2022-08-20T15:25:12;11.27;;;7.53;;
18834;SDS011;9546;59.262;18.036;2022-08-20T15:27:40;10.15;;;7.18;;
18834;SDS011;9546;59.262;18.036;2022-08-20T15:30:09;10.68;;;7.45;;
18834;SDS011;9546;59.262;18.036;2022-08-20T15:32:38;11.32;;;7.00;;
18834;SDS011;9546;59.262;18.036;2022-08-20T15:35:05;8.60;;;7.45;;
18834;SDS011;9546;59.262;18.036;2022-08-20T15:37:37;9.93;;;6.95;;
18834;SDS011;9546;59.262;18.036;2022-08-20T15:40:04;8.68;;;7.32;;
18834;SDS011;9546;59.262;18.036;2022-08-20T15:42:32;9.10;;;7.65;;
18834;SDS011;9546;59.262;18.036;2022-08-20T15:44:59;11.00;;;7.90;;
18834;SDS011;9546;59.262;18.036;2022-08-20T15:47:27;10.13;;;7.60;;
18834;SDS011;9546;59.262;18.036;2022-08-20T15:49:59;10.02;;;8.10;;
18834;SDS011;9546;59.262;18.036;2022-08-20T15:52:30;9.38;;;8.35;;
18834;SDS011;9546;59.262;18.036;2022-08-20T15:55:02;10.27;;;7.53;;
18834;SDS011;9546;59.262;18.036;2022-08-20T15:57:36;9.55;;;8.07;;
18834;SDS011;9546;59.262;18.036;2022-08-20T16:00:15;10.85;;;7.60;;
18834;SDS011;9546;59.262;18.036;2022-08-20T16:03:00;9.23;;;7.32;;
18834;SDS011;9546;59.262;18.036;2022-08-20T16:05:42;8.65;;;7.10;;
18834;SDS011;9546;59.262;18.036;2022-08-20T16:08:21;8.95;;;7.63;;
18834;SDS011;9546;59.262;18.036;2022-08-20T16:11:02;10.55;;;7.75;;
18834;SDS011;9546;59.262;18.036;2022-08-20T16:13:38;9.73;;;8.60;;
18834;SDS011;9546;59.262;18.036;2022-08-20T16:16:10;9.48;;;8.60;;
18834;SDS011;9546;59.262;18.036;2022-08-20T16:18:42;8.60;;;7.90;;
18834;SDS011;9546;59.262;18.036;2022-08-20T16:21:13;10.20;;;9.13;;
18834;SDS011;9546;59.262;18.036;2022-08-20T16:23:43;8.85;;;7.90;;
18834;SDS011;9546;59.262;18.036;2022-08-20T16:26:14;12.60;;;8.18;;
18834;SDS011;9546;59.262;18.036;2022-08-20T16:28:52;9.27;;;7.70;;
18834;SDS011;9546;59.262;18.036;2022-08-20T16:31:27;10.40;;;8.48;;
18834;SDS011;9546;59.262;18.036;2022-08-20T16:34:01;13.00;;;9.10;;
18834;SDS011;9546;59.262;18.036;2022-08-20T16:36:38;10.40;;;9.32;;
18834;SDS011;9546;59.262;18.036;2022-08-20T16:39:09;13.07;;;9.45;;
18834;SDS011;9546;59.262;18.036;2022-08-20T16:41:43;10.70;;;9.60;;
18834;SDS011;9546;59.262;18.036;2022-08-20T16:44:13;11.15;;;10.10;;
18834;SDS011;9546;59.262;18.036;2022-08-20T16:46:51;13.52;;;10.23;;
18834;SDS011;9546;59.262;18.036;2022-08-20T16:49:21;10.30;;;9.30;;
18834;SDS011;9546;59.262;18.036;2022-08-20T16:51:52;9.73;;;8.75;;
18834;SDS011;9546;59.262;18.036;2022-08-20T17:12:57;10.00;;;8.85;;
18834;SDS011;9546;59.262;18.036;2022-08-20T17:15:28;10.60;;;8.63;;
18834;SDS011;9546;59.262;18.036;2022-08-20T17:17:56;10.40;;;9.50;;
18834;SDS011;9546;59.262;18.036;2022-08-20T17:20:24;10.52;;;9.43;;
18834;SDS011;9546;59.262;18.036;2022-08-20T17:22:53;10.27;;;9.23;;
18834;SDS011;9546;59.262;18.036;2022-08-20T17:25:32;12.32;;;10.85;;
18834;SDS011;9546;59.262;18.036;2022-08-20T17:28:12;11.25;;;10.20;;